Date,TemperatureHighF,TemperatureAvgF,TemperatureLowF,DewpointHighF,DewpointAvgF,DewpointLowF,HumidityHigh,HumidityAvg,HumidityLow,PressureMaxIn,PressureMinIn,WindSpeedMaxMPH,WindSpeedAvgMPH,GustSpeedMaxMPH,PrecipitationSumIn
2013-10-1,85.6,72.6,62.3,69.1,63.3,57.7,95,74,49,29.92,29.83,10,4,20,0.00
2013-10-2,84.4,75.3,69.6,70.4,67.2,64.1,94,78,51,29.95,29.84,11,6,21,0.00
2013-10-3,86.6,76.4,69.4,68.8,65.2,60.9,91,71,44,29.92,29.81,13,8,24,0.00
2013-10-4,86.0,75.6,69.3,68.7,66.4,64.6,90,74,54,29.89,29.81,13,9,23,0.00
2013-10-5,77.5,67.6,54.6,68.6,58.8,41.6,90,74,56,30.10,29.85,15,9,24,0.00
2013-10-6,72.9,59.8,46.3,46.9,41.8,33.5,88,57,28,30.23,30.07,14,6,23,0.66
2013-10-7,80.5,68.1,55.7,44.1,38.3,32.5,46,34,24,30.21,30.08,7,3,12,0.00
2013-10-8,79.4,67.1,56.9,49.0,45.0,41.2,58,46,31,30.10,29.98,8,4,20,0.00
2013-10-9,78.4,65.7,54.6,58.7,53.4,46.0,90,66,45,30.06,29.96,10,6,22,0.00
2013-10-10,79.9,69.7,62.5,62.4,60.4,55.4,89,74,53,30.02,29.87,13,8,26,0.00
2013-10-11,81.0,73.4,67.1,68.4,65.7,62.0,89,78,62,29.93,29.84,13,8,26,0.00
2013-10-12,84.0,75.7,70.6,70.6,68.9,66.3,94,80,59,30.00,29.89,7,4,16,0.00
2013-10-13,72.2,67.0,63.8,69.6,64.8,62.1,96,93,88,30.16,29.99,16,6,25,1.17
2013-10-14,77.7,70.2,66.0,66.7,65.5,64.2,95,86,66,30.10,29.92,12,6,22,0.02
2013-10-15,71.6,64.3,49.6,67.7,61.6,47.9,95,91,83,30.04,29.92,16,8,22,0.05
2013-10-16,56.1,50.7,47.5,53.6,49.1,46.1,96,94,91,30.17,30.01,15,9,21,1.86
2013-10-17,69.7,57.4,46.0,53.6,48.6,42.3,92,74,51,30.21,30.02,7,4,12,0.00
2013-10-18,72.2,61.8,49.7,63.4,55.9,47.5,92,81,71,30.08,29.89,19,5,28,0.00
2013-10-19,61.2,50.5,39.8,47.2,40.0,37.3,95,70,44,30.25,30.09,18,9,27,0.00
2013-10-20,69.4,55.9,45.0,54.5,45.1,38.5,78,68,55,30.16,29.95,14,6,25,0.00
2013-10-21,73.4,62.9,53.4,62.1,55.1,46.5,91,76,64,30.11,29.95,13,9,20,0.00
2013-10-22,68.4,58.0,45.0,49.9,41.8,35.5,90,60,31,30.24,30.11,12,6,19,0.00
2013-10-23,75.5,64.2,49.7,45.5,39.7,35.0,57,41,29,30.23,30.12,8,4,19,0.00
2013-10-24,74.3,63.2,53.9,47.6,43.6,40.0,64,50,36,30.26,30.15,10,5,20,0.00
2013-10-25,71.6,62.1,53.2,58.5,53.0,46.8,89,73,55,30.33,30.22,9,4,20,0.00
2013-10-26,73.3,65.8,61.9,62.6,60.1,57.7,91,82,68,30.22,30.08,12,7,22,0.00
2013-10-27,72.8,64.1,57.7,61.4,58.3,53.8,93,82,65,30.14,30.00,10,4,15,0.00
2013-10-28,77.2,69.3,64.0,64.5,62.9,61.2,93,81,65,30.06,29.96,15,8,29,0.00
2013-10-29,77.1,70.3,66.2,67.3,65.3,61.4,95,85,68,30.04,29.95,15,9,29,0.01
2013-10-30,74.8,70.0,66.9,68.4,66.0,64.2,92,87,77,29.99,29.83,16,7,31,0.01
2013-10-31,72.4,68.0,61.4,64.5,46.9,30.8,92,52,25,29.94,29.78,17,7,28,0.00